VCV1187 SKBO-SMJP
Flight info
| Callsign | VCV1187 |
|---|---|
| Flight time | N/A |
| Altitude | 36000 |
| Route | USIDO3C OSOVO DCT KEXAN UM662 DADMU UP549 UGVIR |
| Aircraft | A343/H-SDE2E3FGHIJ4J5M1RWXY/LB1D1 |
Departure
| Time | N/A |
|---|---|
| Airport | El Dorado International Airport (SKBO) |
Arrival
| Time | 2026-05-05 15:46 |
|---|---|
| Airport | Johan Adolf Pengel International Airport (SMJP) |
| Time | Latitude | Longitude | Altitude | Speed | Heading |
|---|---|---|---|---|---|
| 2026-05-05 15:42 | 5.45246 | -55.33072 | 1999 ft | 174 kts | 91° |
| 2026-05-05 15:42 | 5.45233 | -55.31925 | 1982 ft | 155 kts | 87° |
| 2026-05-05 15:43 | 5.45222 | -55.30895 | 1994 ft | 147 kts | 90° |
| 2026-05-05 15:43 | 5.45228 | -55.29777 | 1881 ft | 169 kts | 89° |
| 2026-05-05 15:43 | 5.45228 | -55.28600 | 1657 ft | 163 kts | 88° |
| 2026-05-05 15:43 | 5.45231 | -55.27530 | 1442 ft | 144 kts | 87° |
| 2026-05-05 15:44 | 5.45237 | -55.26585 | 1264 ft | 128 kts | 89° |
| 2026-05-05 15:44 | 5.45242 | -55.25714 | 1114 ft | 123 kts | 89° |
| 2026-05-05 15:44 | 5.45248 | -55.24892 | 972 ft | 123 kts | 90° |
| 2026-05-05 15:44 | 5.45243 | -55.24035 | 795 ft | 122 kts | 87° |
| 2026-05-05 15:45 | 5.45247 | -55.23185 | 669 ft | 122 kts | 87° |
| 2026-05-05 15:45 | 5.45267 | -55.22331 | 520 ft | 121 kts | 91° |
| 2026-05-05 15:45 | 5.45263 | -55.21514 | 328 ft | 115 kts | 90° |
| 2026-05-05 15:45 | 5.45271 | -55.20690 | 202 ft | 123 kts | 88° |
| 2026-05-05 15:46 | 5.45280 | -55.19829 | 65 ft | 120 kts | 87° |
| 2026-05-05 15:46 | 5.45284 | -55.19159 | 58 ft | 72 kts | 90° |
| 2026-05-05 15:46 | 5.45286 | -55.18815 | 55 ft | 37 kts | 90° |
| 2026-05-05 15:46 | 5.45289 | -55.18529 | 56 ft | 47 kts | 89° |
| 2026-05-05 15:47 | 5.45291 | -55.18187 | 60 ft | 45 kts | 89° |
| 2026-05-05 15:47 | 5.45293 | -55.17967 | 69 ft | 47 kts | 90° |
| 2026-05-05 15:47 | 5.45296 | -55.17561 | 62 ft | 18 kts | 89° |
| 2026-05-05 15:47 | 5.45339 | -55.17454 | 58 ft | 17 kts | 45° |
| 2026-05-05 15:48 | 5.45427 | -55.17368 | 56 ft | 18 kts | 47° |
| 2026-05-05 15:48 | 5.45461 | -55.17258 | 63 ft | 16 kts | 104° |
| 2026-05-05 15:48 | 5.45415 | -55.17217 | 58 ft | 0 kts | 170° |
| 2026-05-05 15:50 | 5.45416 | -55.17217 | 58 ft | 0 kts | 170° |
| 2026-05-05 15:52 | 5.45411 | -55.17216 | 57 ft | 4 kts | 171° |
| 2026-05-05 15:52 | 5.45345 | -55.17217 | 59 ft | 13 kts | 193° |
| 2026-05-05 15:52 | 5.45298 | -55.17282 | 57 ft | 12 kts | 261° |
| 2026-05-05 15:52 | 5.45296 | -55.17385 | 60 ft | 17 kts | 270° |
| 2026-05-05 15:53 | 5.45296 | -55.17526 | 62 ft | 25 kts | 270° |
| 2026-05-05 15:53 | 5.45294 | -55.17747 | 62 ft | 34 kts | 269° |
| 2026-05-05 15:53 | 5.45294 | -55.17973 | 63 ft | 30 kts | 270° |
| 2026-05-05 15:53 | 5.45291 | -55.18184 | 64 ft | 32 kts | 269° |
| 2026-05-05 15:54 | 5.45290 | -55.18404 | 58 ft | 31 kts | 269° |
| 2026-05-05 15:54 | 5.45288 | -55.18621 | 55 ft | 32 kts | 270° |
| 2026-05-05 15:54 | 5.45287 | -55.18848 | 56 ft | 32 kts | 270° |
| 2026-05-05 15:54 | 5.45287 | -55.19074 | 59 ft | 33 kts | 270° |
| 2026-05-05 15:55 | 5.45284 | -55.19303 | 61 ft | 33 kts | 269° |
| 2026-05-05 15:55 | 5.45282 | -55.19532 | 63 ft | 33 kts | 270° |
| 2026-05-05 15:55 | 5.45287 | -55.19695 | 60 ft | 14 kts | 285° |
| 2026-05-05 15:55 | 5.45323 | -55.19725 | 61 ft | 5 kts | 340° |
| 2026-05-05 15:56 | 5.45370 | -55.19729 | 69 ft | 8 kts | 359° |
| 2026-05-05 15:56 | 5.45396 | -55.19730 | 69 ft | 0 kts | 358° |
| 2026-05-05 15:56 | 5.45416 | -55.19733 | 67 ft | 7 kts | 345° |
| 2026-05-05 15:57 | 5.45447 | -55.19781 | 65 ft | 10 kts | 277° |
| 2026-05-05 15:57 | 5.45446 | -55.19866 | 65 ft | 15 kts | 269° |
| 2026-05-05 15:57 | 5.45445 | -55.19960 | 64 ft | 5 kts | 289° |
| 2026-05-05 15:57 | 5.45462 | -55.19971 | 57 ft | 1 kts | 355° |
| 2026-05-05 15:58 | 5.45472 | -55.19964 | 61 ft | 3 kts | 33° |
| 2026-05-05 15:58 | 5.45492 | -55.19929 | 55 ft | 6 kts | 60° |
| 2026-05-05 15:58 | 5.45513 | -55.19894 | 56 ft | 6 kts | 59° |
| 2026-05-05 15:58 | 5.45515 | -55.19891 | 58 ft | 0 kts | 59° |